Hootenville, Louisiana
Current Conditions -  °F | °C
As of 4:53 PM on Saturday 20 Dec 2014 (Local Time) from KASD Reporting Station
Overcast Overcast  
Wind Chill: 11°   Ceiling: 1200
Heat Index: 11°   Visibility: 10mi
Dew Point:   Wind: 9mph
Humidity: 83%   Direction: 10°N
Pressure: 30.13"   Gusts: NA
Location:  30.3898°N, 90.0068°W
Report Text: KASD 202253Z AUTO 01008KT 10SM OVC012 11/08 A3013 RMK AO2 SLP202 T01110083
Loading
Personal Weather Stations






























Interactive Weather Map New forecast layout! Learn more

10-Day Weather Forecast

Advertisements
Track Severe Weather on mobile